sensor_id;sensor_type;location;lat;lon;timestamp;temperature;humidity
13433;DHT22;6789;47.678;9.158;2023-09-19T00:00:13;17.90;99.90
13433;DHT22;6789;47.678;9.158;2023-09-19T00:05:05;17.90;99.90
13433;DHT22;6789;47.678;9.158;2023-09-19T00:09:57;17.90;99.90
13433;DHT22;6789;47.678;9.158;2023-09-19T00:14:48;17.90;99.90
13433;DHT22;6789;47.678;9.158;2023-09-19T00:19:40;17.80;99.90
13433;DHT22;6789;47.678;9.158;2023-09-19T00:24:34;17.90;99.90
13433;DHT22;6789;47.678;9.158;2023-09-19T00:29:26;17.80;99.90
13433;DHT22;6789;47.678;9.158;2023-09-19T00:34:20;17.70;99.90
13433;DHT22;6789;47.678;9.158;2023-09-19T00:39:12;17.80;99.90
13433;DHT22;6789;47.678;9.158;2023-09-19T00:44:04;17.80;99.90
13433;DHT22;6789;47.678;9.158;2023-09-19T00:48:56;17.80;99.90
13433;DHT22;6789;47.678;9.158;2023-09-19T00:53:49;17.80;99.90
13433;DHT22;6789;47.678;9.158;2023-09-19T00:58:40;17.80;99.90
13433;DHT22;6789;47.678;9.158;2023-09-19T01:03:39;17.80;99.90
13433;DHT22;6789;47.678;9.158;2023-09-19T01:08:32;17.80;99.90
13433;DHT22;6789;47.678;9.158;2023-09-19T01:13:34;17.70;99.90
13433;DHT22;6789;47.678;9.158;2023-09-19T01:29:50;17.60;99.90
13433;DHT22;6789;47.678;9.158;2023-09-19T01:34:55;17.50;99.90
13433;DHT22;6789;47.678;9.158;2023-09-19T01:40:10;17.60;99.90
13433;DHT22;6789;47.678;9.158;2023-09-19T01:45:34;17.60;99.90
13433;DHT22;6789;47.678;9.158;2023-09-19T01:50:41;17.50;99.90
13433;DHT22;6789;47.678;9.158;2023-09-19T01:55:40;17.50;99.90
13433;DHT22;6789;47.678;9.158;2023-09-19T02:00:37;17.50;99.90
13433;DHT22;6789;47.678;9.158;2023-09-19T02:05:33;17.50;99.90
13433;DHT22;6789;47.678;9.158;2023-09-19T02:10:25;17.40;99.90
13433;DHT22;6789;47.678;9.158;2023-09-19T02:15:18;17.30;99.90
13433;DHT22;6789;47.678;9.158;2023-09-19T02:20:11;17.30;99.90
13433;DHT22;6789;47.678;9.158;2023-09-19T02:25:06;17.30;99.90
13433;DHT22;6789;47.678;9.158;2023-09-19T02:29:59;17.30;99.90
13433;DHT22;6789;47.678;9.158;2023-09-19T02:34:54;17.30;99.90
13433;DHT22;6789;47.678;9.158;2023-09-19T02:39:45;17.20;99.90
13433;DHT22;6789;47.678;9.158;2023-09-19T02:44:37;17.10;99.90
13433;DHT22;6789;47.678;9.158;2023-09-19T02:49:29;17.10;99.90
13433;DHT22;6789;47.678;9.158;2023-09-19T02:54:21;17.10;99.90
13433;DHT22;6789;47.678;9.158;2023-09-19T02:59:14;17.20;99.90
13433;DHT22;6789;47.678;9.158;2023-09-19T03:04:07;17.20;99.90
13433;DHT22;6789;47.678;9.158;2023-09-19T03:09:00;17.20;99.90
13433;DHT22;6789;47.678;9.158;2023-09-19T03:13:55;17.20;99.90
13433;DHT22;6789;47.678;9.158;2023-09-19T03:18:48;17.20;99.90
13433;DHT22;6789;47.678;9.158;2023-09-19T03:23:40;17.30;99.90
13433;DHT22;6789;47.678;9.158;2023-09-19T03:28:33;17.20;99.90
13433;DHT22;6789;47.678;9.158;2023-09-19T03:33:26;17.30;99.90
13433;DHT22;6789;47.678;9.158;2023-09-19T03:38:18;17.20;99.90
13433;DHT22;6789;47.678;9.158;2023-09-19T03:43:09;17.20;99.90
13433;DHT22;6789;47.678;9.158;2023-09-19T03:48:01;17.10;99.90
13433;DHT22;6789;47.678;9.158;2023-09-19T03:52:56;17.10;99.90
13433;DHT22;6789;47.678;9.158;2023-09-19T03:57:48;17.20;99.90
13433;DHT22;6789;47.678;9.158;2023-09-19T04:02:56;17.30;99.90
13433;DHT22;6789;47.678;9.158;2023-09-19T04:07:48;17.30;99.90
13433;DHT22;6789;47.678;9.158;2023-09-19T04:12:53;17.30;99.90
13433;DHT22;6789;47.678;9.158;2023-09-19T04:17:46;17.40;99.90
13433;DHT22;6789;47.678;9.158;2023-09-19T04:22:51;17.40;99.90
13433;DHT22;6789;47.678;9.158;2023-09-19T04:27:44;17.50;99.90
13433;DHT22;6789;47.678;9.158;2023-09-19T04:32:36;17.40;99.90
13433;DHT22;6789;47.678;9.158;2023-09-19T04:37:31;17.30;99.90
13433;DHT22;6789;47.678;9.158;2023-09-19T04:42:23;17.30;99.90
13433;DHT22;6789;47.678;9.158;2023-09-19T04:47:16;17.30;99.90
13433;DHT22;6789;47.678;9.158;2023-09-19T04:52:08;17.50;99.90
13433;DHT22;6789;47.678;9.158;2023-09-19T04:56:59;17.50;99.90
13433;DHT22;6789;47.678;9.158;2023-09-19T05:01:54;17.40;99.90
13433;DHT22;6789;47.678;9.158;2023-09-19T05:06:47;17.40;99.90
13433;DHT22;6789;47.678;9.158;2023-09-19T05:11:39;17.40;99.90
13433;DHT22;6789;47.678;9.158;2023-09-19T05:16:31;17.40;99.90
13433;DHT22;6789;47.678;9.158;2023-09-19T05:21:23;17.40;99.90
13433;DHT22;6789;47.678;9.158;2023-09-19T05:26:15;17.40;99.90
13433;DHT22;6789;47.678;9.158;2023-09-19T05:31:07;17.40;99.90
13433;DHT22;6789;47.678;9.158;2023-09-19T05:35:59;17.50;99.90
13433;DHT22;6789;47.678;9.158;2023-09-19T05:40:51;17.50;99.90
13433;DHT22;6789;47.678;9.158;2023-09-19T05:45:42;17.60;99.90
13433;DHT22;6789;47.678;9.158;2023-09-19T05:50:34;17.70;99.90
13433;DHT22;6789;47.678;9.158;2023-09-19T05:55:27;17.70;99.90
13433;DHT22;6789;47.678;9.158;2023-09-19T06:00:21;17.80;99.90
13433;DHT22;6789;47.678;9.158;2023-09-19T06:05:17;17.90;99.90
13433;DHT22;6789;47.678;9.158;2023-09-19T06:10:10;17.90;99.90
13433;DHT22;6789;47.678;9.158;2023-09-19T06:15:01;18.00;99.90
13433;DHT22;6789;47.678;9.158;2023-09-19T06:19:53;18.00;99.90
13433;DHT22;6789;47.678;9.158;2023-09-19T06:24:47;18.20;99.90
13433;DHT22;6789;47.678;9.158;2023-09-19T06:29:39;18.20;99.90
13433;DHT22;6789;47.678;9.158;2023-09-19T06:34:31;18.30;99.90
13433;DHT22;6789;47.678;9.158;2023-09-19T06:39:24;18.40;99.90
13433;DHT22;6789;47.678;9.158;2023-09-19T06:44:31;18.60;99.90
13433;DHT22;6789;47.678;9.158;2023-09-19T06:49:23;18.80;99.90
13433;DHT22;6789;47.678;9.158;2023-09-19T06:54:15;19.00;99.90
13433;DHT22;6789;47.678;9.158;2023-09-19T06:59:09;19.20;99.90
13433;DHT22;6789;47.678;9.158;2023-09-19T07:04:01;19.40;99.90
13433;DHT22;6789;47.678;9.158;2023-09-19T07:08:52;19.50;99.90
13433;DHT22;6789;47.678;9.158;2023-09-19T07:13:46;19.70;99.90
13433;DHT22;6789;47.678;9.158;2023-09-19T07:18:39;19.80;99.90
13433;DHT22;6789;47.678;9.158;2023-09-19T07:23:31;19.90;99.90
13433;DHT22;6789;47.678;9.158;2023-09-19T07:28:34;20.00;99.90
13433;DHT22;6789;47.678;9.158;2023-09-19T07:33:28;19.80;99.90
13433;DHT22;6789;47.678;9.158;2023-09-19T07:38:53;19.90;99.90
13433;DHT22;6789;47.678;9.158;2023-09-19T07:44:00;20.00;99.90
13433;DHT22;6789;47.678;9.158;2023-09-19T07:48:52;20.10;99.90
13433;DHT22;6789;47.678;9.158;2023-09-19T07:53:49;20.30;99.90
13433;DHT22;6789;47.678;9.158;2023-09-19T07:58:42;20.40;99.90
13433;DHT22;6789;47.678;9.158;2023-09-19T08:03:35;20.40;99.90
13433;DHT22;6789;47.678;9.158;2023-09-19T08:08:35;20.50;99.90
13433;DHT22;6789;47.678;9.158;2023-09-19T08:13:28;20.70;99.90
13433;DHT22;6789;47.678;9.158;2023-09-19T08:18:22;20.90;99.90
13433;DHT22;6789;47.678;9.158;2023-09-19T08:23:16;20.90;99.90
13433;DHT22;6789;47.678;9.158;2023-09-19T08:28:09;20.90;99.90
13433;DHT22;6789;47.678;9.158;2023-09-19T08:33:04;21.10;99.90
13433;DHT22;6789;47.678;9.158;2023-09-19T08:37:56;21.10;99.90
13433;DHT22;6789;47.678;9.158;2023-09-19T08:42:52;21.20;99.90
13433;DHT22;6789;47.678;9.158;2023-09-19T08:47:47;21.30;99.90
13433;DHT22;6789;47.678;9.158;2023-09-19T08:52:51;21.30;99.90
13433;DHT22;6789;47.678;9.158;2023-09-19T08:57:49;21.50;99.90
13433;DHT22;6789;47.678;9.158;2023-09-19T09:02:42;21.50;99.90
13433;DHT22;6789;47.678;9.158;2023-09-19T09:07:50;21.40;99.90
13433;DHT22;6789;47.678;9.158;2023-09-19T09:12:58;21.60;99.90
13433;DHT22;6789;47.678;9.158;2023-09-19T09:18:13;21.60;99.90
13433;DHT22;6789;47.678;9.158;2023-09-19T09:23:06;21.90;99.90
13433;DHT22;6789;47.678;9.158;2023-09-19T09:28:03;22.30;99.90
13433;DHT22;6789;47.678;9.158;2023-09-19T09:33:08;22.30;99.90
13433;DHT22;6789;47.678;9.158;2023-09-19T09:38:08;22.30;99.90
13433;DHT22;6789;47.678;9.158;2023-09-19T09:43:02;22.30;99.90
13433;DHT22;6789;47.678;9.158;2023-09-19T09:47:55;22.60;99.90
13433;DHT22;6789;47.678;9.158;2023-09-19T09:52:54;22.70;99.90
13433;DHT22;6789;47.678;9.158;2023-09-19T09:58:16;22.80;99.90
13433;DHT22;6789;47.678;9.158;2023-09-19T10:03:31;22.70;99.90
13433;DHT22;6789;47.678;9.158;2023-09-19T10:09:07;22.50;99.90
13433;DHT22;6789;47.678;9.158;2023-09-19T10:14:15;22.20;99.90
13433;DHT22;6789;47.678;9.158;2023-09-19T10:19:14;22.00;99.90
13433;DHT22;6789;47.678;9.158;2023-09-19T10:24:36;21.90;99.90
13433;DHT22;6789;47.678;9.158;2023-09-19T10:29:46;21.70;99.90
13433;DHT22;6789;47.678;9.158;2023-09-19T10:34:47;21.60;99.90
13433;DHT22;6789;47.678;9.158;2023-09-19T10:39:56;21.70;99.90
13433;DHT22;6789;47.678;9.158;2023-09-19T10:44:52;21.90;99.90
13433;DHT22;6789;47.678;9.158;2023-09-19T10:50:01;22.30;99.90
13433;DHT22;6789;47.678;9.158;2023-09-19T10:55:17;22.60;99.90
13433;DHT22;6789;47.678;9.158;2023-09-19T11:00:14;22.80;99.90
13433;DHT22;6789;47.678;9.158;2023-09-19T11:05:16;22.90;99.90
13433;DHT22;6789;47.678;9.158;2023-09-19T11:10:43;22.60;99.90
13433;DHT22;6789;47.678;9.158;2023-09-19T11:26:45;22.70;99.90
13433;DHT22;6789;47.678;9.158;2023-09-19T11:31:43;23.10;99.90
13433;DHT22;6789;47.678;9.158;2023-09-19T11:36:36;23.50;99.90
13433;DHT22;6789;47.678;9.158;2023-09-19T11:41:42;23.80;99.90
13433;DHT22;6789;47.678;9.158;2023-09-19T11:46:53;24.00;99.90
13433;DHT22;6789;47.678;9.158;2023-09-19T11:51:48;24.20;99.90
13433;DHT22;6789;47.678;9.158;2023-09-19T11:56:48;24.10;99.90
13433;DHT22;6789;47.678;9.158;2023-09-19T12:01:53;24.00;99.90
13433;DHT22;6789;47.678;9.158;2023-09-19T12:06:56;24.10;99.90
13433;DHT22;6789;47.678;9.158;2023-09-19T12:11:50;24.20;99.90
13433;DHT22;6789;47.678;9.158;2023-09-19T12:16:55;24.10;99.90
13433;DHT22;6789;47.678;9.158;2023-09-19T12:22:06;23.80;99.90
13433;DHT22;6789;47.678;9.158;2023-09-19T12:27:04;23.50;99.90
13433;DHT22;6789;47.678;9.158;2023-09-19T12:31:58;23.10;99.90
13433;DHT22;6789;47.678;9.158;2023-09-19T12:37:04;22.80;99.90
13433;DHT22;6789;47.678;9.158;2023-09-19T12:42:14;23.00;99.90
13433;DHT22;6789;47.678;9.158;2023-09-19T12:47:15;23.20;99.90
13433;DHT22;6789;47.678;9.158;2023-09-19T12:52:17;23.40;99.90
13433;DHT22;6789;47.678;9.158;2023-09-19T12:57:23;23.30;99.90
13433;DHT22;6789;47.678;9.158;2023-09-19T13:02:17;23.40;99.90
13433;DHT22;6789;47.678;9.158;2023-09-19T13:07:44;23.40;99.90
13433;DHT22;6789;47.678;9.158;2023-09-19T13:12:42;23.50;99.90
13433;DHT22;6789;47.678;9.158;2023-09-19T13:17:43;23.70;99.90
13433;DHT22;6789;47.678;9.158;2023-09-19T13:22:45;23.60;99.90
13433;DHT22;6789;47.678;9.158;2023-09-19T13:27:57;23.40;99.90
13433;DHT22;6789;47.678;9.158;2023-09-19T13:32:51;23.40;99.90
13433;DHT22;6789;47.678;9.158;2023-09-19T13:37:46;23.30;99.90
13433;DHT22;6789;47.678;9.158;2023-09-19T13:42:41;23.40;99.90
13433;DHT22;6789;47.678;9.158;2023-09-19T13:47:33;23.50;99.90
13433;DHT22;6789;47.678;9.158;2023-09-19T13:52:29;23.70;99.90
13433;DHT22;6789;47.678;9.158;2023-09-19T13:57:23;23.70;99.90
13433;DHT22;6789;47.678;9.158;2023-09-19T14:02:15;23.80;99.90
13433;DHT22;6789;47.678;9.158;2023-09-19T14:07:09;23.80;99.90
13433;DHT22;6789;47.678;9.158;2023-09-19T14:12:02;23.90;99.90
13433;DHT22;6789;47.678;9.158;2023-09-19T14:17:08;23.90;99.90
13433;DHT22;6789;47.678;9.158;2023-09-19T14:22:14;23.80;99.90
13433;DHT22;6789;47.678;9.158;2023-09-19T14:27:30;23.90;99.90
13433;DHT22;6789;47.678;9.158;2023-09-19T14:32:23;23.80;99.90
13433;DHT22;6789;47.678;9.158;2023-09-19T14:37:17;23.80;99.90
13433;DHT22;6789;47.678;9.158;2023-09-19T14:42:09;23.90;99.90
13433;DHT22;6789;47.678;9.158;2023-09-19T14:47:01;23.70;99.90
13433;DHT22;6789;47.678;9.158;2023-09-19T14:51:53;23.60;99.90
13433;DHT22;6789;47.678;9.158;2023-09-19T14:56:45;23.60;99.90
13433;DHT22;6789;47.678;9.158;2023-09-19T15:01:37;23.60;99.90
13433;DHT22;6789;47.678;9.158;2023-09-19T15:06:30;23.60;99.90
13433;DHT22;6789;47.678;9.158;2023-09-19T15:11:22;23.60;99.90
13433;DHT22;6789;47.678;9.158;2023-09-19T15:16:14;23.40;99.90
13433;DHT22;6789;47.678;9.158;2023-09-19T15:21:07;23.40;99.90
13433;DHT22;6789;47.678;9.158;2023-09-19T15:26:01;23.30;99.90
13433;DHT22;6789;47.678;9.158;2023-09-19T15:36:10;23.20;99.90
13433;DHT22;6789;47.678;9.158;2023-09-19T15:41:03;23.20;99.90
13433;DHT22;6789;47.678;9.158;2023-09-19T15:46:00;23.20;99.90
13433;DHT22;6789;47.678;9.158;2023-09-19T15:50:53;23.10;99.90
13433;DHT22;6789;47.678;9.158;2023-09-19T15:55:46;23.00;99.90
13433;DHT22;6789;47.678;9.158;2023-09-19T16:00:40;22.90;99.90
13433;DHT22;6789;47.678;9.158;2023-09-19T16:05:36;22.80;99.90
13433;DHT22;6789;47.678;9.158;2023-09-19T16:10:42;22.80;99.90
13433;DHT22;6789;47.678;9.158;2023-09-19T16:15:41;22.70;99.90
13433;DHT22;6789;47.678;9.158;2023-09-19T16:20:35;22.70;99.90
13433;DHT22;6789;47.678;9.158;2023-09-19T16:25:30;22.70;99.90
13433;DHT22;6789;47.678;9.158;2023-09-19T16:30:21;22.70;99.90
13433;DHT22;6789;47.678;9.158;2023-09-19T16:35:13;22.70;99.90
13433;DHT22;6789;47.678;9.158;2023-09-19T16:40:06;22.60;99.90
13433;DHT22;6789;47.678;9.158;2023-09-19T16:45:00;22.60;99.90
13433;DHT22;6789;47.678;9.158;2023-09-19T16:49:51;22.50;99.90
13433;DHT22;6789;47.678;9.158;2023-09-19T16:54:44;22.40;99.90
13433;DHT22;6789;47.678;9.158;2023-09-19T16:59:36;22.30;99.90
13433;DHT22;6789;47.678;9.158;2023-09-19T17:04:30;22.10;99.90
13433;DHT22;6789;47.678;9.158;2023-09-19T17:09:37;21.90;99.90
13433;DHT22;6789;47.678;9.158;2023-09-19T17:14:33;21.90;99.90
13433;DHT22;6789;47.678;9.158;2023-09-19T17:19:27;21.70;99.90
13433;DHT22;6789;47.678;9.158;2023-09-19T17:24:33;21.40;99.90
13433;DHT22;6789;47.678;9.158;2023-09-19T17:29:34;21.20;99.90
13433;DHT22;6789;47.678;9.158;2023-09-19T17:34:28;21.00;99.90
13433;DHT22;6789;47.678;9.158;2023-09-19T17:39:30;21.00;99.90
13433;DHT22;6789;47.678;9.158;2023-09-19T17:44:22;20.70;99.90
13433;DHT22;6789;47.678;9.158;2023-09-19T17:49:14;20.40;99.90
13433;DHT22;6789;47.678;9.158;2023-09-19T17:54:05;20.20;99.90
13433;DHT22;6789;47.678;9.158;2023-09-19T17:59:02;20.00;99.90
13433;DHT22;6789;47.678;9.158;2023-09-19T18:04:07;19.90;99.90
13433;DHT22;6789;47.678;9.158;2023-09-19T18:09:01;19.70;99.90
13433;DHT22;6789;47.678;9.158;2023-09-19T18:13:55;19.50;99.90
13433;DHT22;6789;47.678;9.158;2023-09-19T18:18:50;19.40;99.90
13433;DHT22;6789;47.678;9.158;2023-09-19T18:23:57;19.10;99.90
13433;DHT22;6789;47.678;9.158;2023-09-19T18:29:05;19.00;99.90
13433;DHT22;6789;47.678;9.158;2023-09-19T18:34:01;18.90;99.90
13433;DHT22;6789;47.678;9.158;2023-09-19T18:38:56;18.70;99.90
13433;DHT22;6789;47.678;9.158;2023-09-19T18:43:48;18.60;99.90
13433;DHT22;6789;47.678;9.158;2023-09-19T18:48:42;18.40;99.90
13433;DHT22;6789;47.678;9.158;2023-09-19T18:54:10;18.40;99.90
13433;DHT22;6789;47.678;9.158;2023-09-19T18:59:20;18.30;99.90
13433;DHT22;6789;47.678;9.158;2023-09-19T19:04:18;18.20;99.90
13433;DHT22;6789;47.678;9.158;2023-09-19T19:09:12;18.00;99.90
13433;DHT22;6789;47.678;9.158;2023-09-19T19:14:08;18.00;99.90
13433;DHT22;6789;47.678;9.158;2023-09-19T19:19:03;17.90;99.90
13433;DHT22;6789;47.678;9.158;2023-09-19T19:24:15;17.80;99.90
13433;DHT22;6789;47.678;9.158;2023-09-19T19:29:15;17.80;99.90
13433;DHT22;6789;47.678;9.158;2023-09-19T19:34:12;17.80;99.90
13433;DHT22;6789;47.678;9.158;2023-09-19T19:39:08;17.80;99.90
13433;DHT22;6789;47.678;9.158;2023-09-19T19:44:18;17.70;99.90
13433;DHT22;6789;47.678;9.158;2023-09-19T19:49:26;17.60;99.90
13433;DHT22;6789;47.678;9.158;2023-09-19T19:54:27;17.50;99.90
13433;DHT22;6789;47.678;9.158;2023-09-19T19:59:21;17.40;99.90
13433;DHT22;6789;47.678;9.158;2023-09-19T20:04:15;17.40;99.90
13433;DHT22;6789;47.678;9.158;2023-09-19T20:09:17;17.30;99.90
13433;DHT22;6789;47.678;9.158;2023-09-19T20:14:11;17.30;99.90
13433;DHT22;6789;47.678;9.158;2023-09-19T20:19:04;17.20;99.90
13433;DHT22;6789;47.678;9.158;2023-09-19T20:24:10;17.40;99.90
13433;DHT22;6789;47.678;9.158;2023-09-19T20:29:07;17.20;99.90
13433;DHT22;6789;47.678;9.158;2023-09-19T20:34:13;17.20;99.90
13433;DHT22;6789;47.678;9.158;2023-09-19T20:39:07;17.00;99.90
13433;DHT22;6789;47.678;9.158;2023-09-19T20:44:18;17.00;99.90
13433;DHT22;6789;47.678;9.158;2023-09-19T20:49:12;16.90;99.90
13433;DHT22;6789;47.678;9.158;2023-09-19T20:54:09;16.90;99.90
13433;DHT22;6789;47.678;9.158;2023-09-19T20:59:08;16.90;99.90
13433;DHT22;6789;47.678;9.158;2023-09-19T21:04:14;16.70;99.90
13433;DHT22;6789;47.678;9.158;2023-09-19T21:09:19;16.70;99.90
13433;DHT22;6789;47.678;9.158;2023-09-19T21:14:21;16.60;99.90
13433;DHT22;6789;47.678;9.158;2023-09-19T21:19:13;16.60;99.90
13433;DHT22;6789;47.678;9.158;2023-09-19T21:24:05;16.60;99.90
13433;DHT22;6789;47.678;9.158;2023-09-19T21:28:57;16.70;99.90
13433;DHT22;6789;47.678;9.158;2023-09-19T21:33:49;16.70;99.90
13433;DHT22;6789;47.678;9.158;2023-09-19T21:38:41;16.50;99.90
13433;DHT22;6789;47.678;9.158;2023-09-19T21:43:33;16.30;99.90
13433;DHT22;6789;47.678;9.158;2023-09-19T21:48:27;16.20;99.90
13433;DHT22;6789;47.678;9.158;2023-09-19T21:53:19;16.10;99.90
13433;DHT22;6789;47.678;9.158;2023-09-19T21:58:10;16.10;99.90
13433;DHT22;6789;47.678;9.158;2023-09-19T22:03:03;16.10;99.90
13433;DHT22;6789;47.678;9.158;2023-09-19T22:08:36;16.10;99.90
13433;DHT22;6789;47.678;9.158;2023-09-19T22:13:31;16.10;99.90
13433;DHT22;6789;47.678;9.158;2023-09-19T22:18:22;16.00;99.90
13433;DHT22;6789;47.678;9.158;2023-09-19T22:23:16;15.90;99.90
13433;DHT22;6789;47.678;9.158;2023-09-19T22:28:08;15.90;99.90
13433;DHT22;6789;47.678;9.158;2023-09-19T22:33:03;15.80;99.90
13433;DHT22;6789;47.678;9.158;2023-09-19T22:37:55;15.90;99.90
13433;DHT22;6789;47.678;9.158;2023-09-19T22:42:58;15.80;99.90
13433;DHT22;6789;47.678;9.158;2023-09-19T22:47:53;15.80;99.90
13433;DHT22;6789;47.678;9.158;2023-09-19T22:52:49;15.80;99.90
13433;DHT22;6789;47.678;9.158;2023-09-19T22:57:42;15.80;99.90
13433;DHT22;6789;47.678;9.158;2023-09-19T23:02:34;15.80;99.90
13433;DHT22;6789;47.678;9.158;2023-09-19T23:07:27;15.80;99.90
13433;DHT22;6789;47.678;9.158;2023-09-19T23:12:20;15.70;99.90
13433;DHT22;6789;47.678;9.158;2023-09-19T23:17:14;15.70;99.90
13433;DHT22;6789;47.678;9.158;2023-09-19T23:22:12;15.70;99.90
13433;DHT22;6789;47.678;9.158;2023-09-19T23:27:14;15.70;99.90
13433;DHT22;6789;47.678;9.158;2023-09-19T23:32:10;15.60;99.90
13433;DHT22;6789;47.678;9.158;2023-09-19T23:37:02;15.50;99.90
13433;DHT22;6789;47.678;9.158;2023-09-19T23:41:54;15.50;99.90
13433;DHT22;6789;47.678;9.158;2023-09-19T23:46:48;15.60;99.90
13433;DHT22;6789;47.678;9.158;2023-09-19T23:51:46;15.40;99.90
13433;DHT22;6789;47.678;9.158;2023-09-19T23:56:39;15.20;99.90
